Time;durP1;ratioP1;P1;durP2;ratioP2;P2;SDS_P1;SDS_P2;PMS_P1;PMS_P2;Temp;Humidity;BMP_temperature;BMP_pressure;BME280_temperature;BME280_humidity;BME280_pressure;Samples;Min_cycle;Max_cycle;Signal;HPM_P1;HPM_P2
2022/12/27 00:00:26;;;;;;;3.50;2.53;;;;;;;;;;5106324;28;20107;-49
2022/12/27 00:02:52;;;;;;;4.00;2.20;;;;;;;;;;5106585;28;20023;-46
2022/12/27 00:05:18;;;;;;;3.78;2.38;;;;;;;;;;5106666;28;20080;-47
2022/12/27 00:07:45;;;;;;;3.17;2.35;;;;;;;;;;5106644;28;20028;-49
2022/12/27 00:10:12;;;;;;;3.55;2.33;;;;;;;;;;5105630;28;20035;-47
2022/12/27 00:12:38;;;;;;;3.40;2.42;;;;;;;;;;5106391;28;20103;-50
2022/12/27 00:15:04;;;;;;;3.40;2.40;;;;;;;;;;5106471;28;20479;-46
2022/12/27 00:17:30;;;;;;;4.85;3.08;;;;;;;;;;5087471;28;20023;-48
2022/12/27 00:19:57;;;;;;;5.03;3.33;;;;;;;;;;5106344;28;20031;-49
2022/12/27 00:22:23;;;;;;;4.50;3.13;;;;;;;;;;5106253;28;20057;-45
2022/12/27 00:24:49;;;;;;;6.50;3.45;;;;;;;;;;5103585;28;20250;-47
2022/12/27 00:27:15;;;;;;;4.65;3.20;;;;;;;;;;5086038;28;20028;-46
2022/12/27 00:29:41;;;;;;;4.65;2.70;;;;;;;;;;5085714;28;20020;-48
2022/12/27 00:32:07;;;;;;;4.60;2.80;;;;;;;;;;5084858;28;20028;-47
2022/12/27 00:34:34;;;;;;;3.75;2.55;;;;;;;;;;5085873;28;20020;-47
2022/12/27 00:37:01;;;;;;;4.57;2.63;;;;;;;;;;5085820;28;20027;-48
2022/12/27 00:39:27;;;;;;;4.32;2.58;;;;;;;;;;5086167;28;20507;-49
2022/12/27 00:41:54;;;;;;;4.03;2.80;;;;;;;;;;5105803;28;20119;-48
2022/12/27 00:44:19;;;;;;;3.33;2.00;;;;;;;;;;5106077;28;20024;-47
2022/12/27 00:46:45;;;;;;;3.75;2.30;;;;;;;;;;5105312;28;20036;-47
2022/12/27 00:49:11;;;;;;;4.20;3.03;;;;;;;;;;5106142;28;20490;-46
2022/12/27 00:51:37;;;;;;;3.75;2.53;;;;;;;;;;5105562;28;20502;-48
2022/12/27 00:54:03;;;;;;;4.95;2.65;;;;;;;;;;5105554;28;20024;-46
2022/12/27 00:56:30;;;;;;;5.22;2.83;;;;;;;;;;5105298;28;20054;-49
2022/12/27 00:58:58;;;;;;;4.93;2.70;;;;;;;;;;5087082;28;20022;-46
2022/12/27 01:01:25;;;;;;;5.47;3.22;;;;;;;;;;5086766;28;20068;-47
2022/12/27 01:03:51;;;;;;;4.35;2.80;;;;;;;;;;5105581;28;20053;-49
2022/12/27 06:10:48;;;;;;;0.70;0.70;;;;;;;;;;5106011;27;20570;-48
2022/12/27 06:13:14;;;;;;;1.30;0.70;;;;;;;;;;5105442;28;20115;-46
2022/12/27 06:15:40;;;;;;;0.73;0.70;;;;;;;;;;5090715;28;20472;-50
2022/12/27 06:18:06;;;;;;;1.38;0.75;;;;;;;;;;5103004;28;20122;-46
2022/12/27 06:20:32;;;;;;;0.93;0.60;;;;;;;;;;5111048;28;20031;-50
2022/12/27 06:22:59;;;;;;;1.60;1.10;;;;;;;;;;5110234;28;20023;-47
2022/12/27 06:25:25;;;;;;;1.67;0.90;;;;;;;;;;5110201;28;20023;-49
2022/12/27 06:27:51;;;;;;;1.00;0.80;;;;;;;;;;5110513;28;20605;-50
2022/12/27 06:30:17;;;;;;;1.95;0.95;;;;;;;;;;5110724;28;20491;-48
2022/12/27 06:32:43;;;;;;;1.17;0.93;;;;;;;;;;5111052;28;20035;-46
2022/12/27 06:35:10;;;;;;;1.10;0.88;;;;;;;;;;5111079;28;20024;-48
2022/12/27 06:37:36;;;;;;;0.70;0.70;;;;;;;;;;5110993;28;20024;-49
2022/12/27 06:40:02;;;;;;;0.98;0.80;;;;;;;;;;5110656;28;20024;-47
2022/12/27 06:42:29;;;;;;;0.85;0.65;;;;;;;;;;5109798;28;20058;-47
2022/12/27 06:44:55;;;;;;;1.10;1.00;;;;;;;;;;5110502;28;20039;-45
2022/12/27 06:47:21;;;;;;;1.38;0.90;;;;;;;;;;5110967;28;20532;-50
2022/12/27 06:49:47;;;;;;;2.10;1.13;;;;;;;;;;5110569;28;20035;-46
2022/12/27 06:52:13;;;;;;;1.40;0.80;;;;;;;;;;5110777;28;20038;-49
2022/12/27 06:54:40;;;;;;;2.15;1.15;;;;;;;;;;5110453;28;20543;-46
2022/12/27 06:57:06;;;;;;;1.80;1.23;;;;;;;;;;5109494;28;20701;-49
2022/12/27 06:59:32;;;;;;;1.73;1.00;;;;;;;;;;5110103;28;20031;-47
2022/12/27 07:01:58;;;;;;;2.05;1.27;;;;;;;;;;5110505;28;20035;-49
2022/12/27 07:04:24;;;;;;;1.45;0.90;;;;;;;;;;5098822;28;20054;-48
2022/12/27 07:06:50;;;;;;;1.50;0.90;;;;;;;;;;5090593;28;20487;-46
2022/12/27 07:09:16;;;;;;;1.83;0.95;;;;;;;;;;5109825;28;20035;-49
2022/12/27 07:11:44;;;;;;;2.30;1.10;;;;;;;;;;5110147;28;20509;-50
2022/12/27 07:14:10;;;;;;;1.90;1.38;;;;;;;;;;5110087;28;20464;-49
2022/12/27 07:16:36;;;;;;;2.08;1.33;;;;;;;;;;5110295;28;20135;-50
2022/12/27 07:19:03;;;;;;;2.50;1.30;;;;;;;;;;5110148;28;20020;-48
2022/12/27 07:21:29;;;;;;;2.05;1.20;;;;;;;;;;5109083;28;20032;-47
2022/12/27 07:23:55;;;;;;;2.20;1.30;;;;;;;;;;5110050;28;20019;-48
2022/12/27 07:26:22;;;;;;;2.58;1.50;;;;;;;;;;5110358;28;20062;-48
2022/12/27 07:28:49;;;;;;;1.77;1.42;;;;;;;;;;5109804;28;20031;-48
2022/12/27 07:31:16;;;;;;;1.65;1.30;;;;;;;;;;5109873;28;20489;-49
2022/12/27 07:33:42;;;;;;;3.38;1.75;;;;;;;;;;5109831;28;20016;-49
2022/12/27 07:36:10;;;;;;;1.85;1.50;;;;;;;;;;5100703;28;20057;-49
2022/12/27 07:38:37;;;;;;;3.53;1.73;;;;;;;;;;5105419;28;20023;-45
2022/12/27 07:41:03;;;;;;;2.92;1.70;;;;;;;;;;5109336;28;20386;-44
2022/12/27 07:43:29;;;;;;;3.40;2.10;;;;;;;;;;5109524;28;20024;-48
2022/12/27 07:46:01;;;;;;;2.95;2.10;;;;;;;;;;5109406;28;20122;-43
2022/12/27 07:48:28;;;;;;;2.63;2.03;;;;;;;;;;5109544;28;20488;-44
2022/12/27 07:50:54;;;;;;;2.70;2.10;;;;;;;;;;5107367;28;20039;-44
2022/12/27 07:53:21;;;;;;;3.13;2.38;;;;;;;;;;5109529;28;20045;-46
2022/12/27 07:55:47;;;;;;;4.03;3.08;;;;;;;;;;5109047;28;20108;-47
2022/12/27 07:58:14;;;;;;;3.40;2.70;;;;;;;;;;5109279;28;20022;-44
2022/12/27 08:00:40;;;;;;;3.03;2.60;;;;;;;;;;5109225;28;20485;-47
2022/12/27 08:03:06;;;;;;;6.13;3.47;;;;;;;;;;5108946;28;20514;-44
2022/12/27 08:05:32;;;;;;;5.63;3.75;;;;;;;;;;5108116;28;20035;-47
2022/12/27 08:08:00;;;;;;;4.95;3.63;;;;;;;;;;5108045;28;20023;-45
2022/12/27 08:10:27;;;;;;;5.18;3.53;;;;;;;;;;5118604;27;20027;-45
2022/12/27 08:12:53;;;;;;;7.13;4.82;;;;;;;;;;5110462;27;20069;-46
2022/12/27 08:15:20;;;;;;;4.97;3.33;;;;;;;;;;5104577;28;20023;-45
2022/12/27 08:17:46;;;;;;;4.90;3.50;;;;;;;;;;5109018;28;20119;-45
2022/12/27 08:20:15;;;;;;;4.68;3.45;;;;;;;;;;5108868;28;20027;-47
2022/12/27 08:22:41;;;;;;;5.72;3.60;;;;;;;;;;5108680;28;20023;-44
2022/12/27 08:25:07;;;;;;;9.25;5.60;;;;;;;;;;5108273;28;20207;-44
2022/12/27 08:27:33;;;;;;;11.82;6.63;;;;;;;;;;5108952;28;20016;-46
2022/12/27 08:29:59;;;;;;;13.00;7.28;;;;;;;;;;5101736;28;20074;-44
2022/12/27 08:32:25;;;;;;;13.07;7.82;;;;;;;;;;5107189;28;20463;-47
2022/12/27 08:34:51;;;;;;;11.35;6.78;;;;;;;;;;5090380;28;20104;-44
2022/12/27 08:37:18;;;;;;;13.25;7.53;;;;;;;;;;5108948;28;20012;-46
2022/12/27 08:39:44;;;;;;;14.75;7.35;;;;;;;;;;5108280;28;20043;-45
2022/12/27 08:42:13;;;;;;;10.18;5.90;;;;;;;;;;5108043;28;20446;-43
2022/12/27 08:44:39;;;;;;;11.30;6.60;;;;;;;;;;5108110;28;20038;-44
2022/12/27 08:47:05;;;;;;;8.98;5.40;;;;;;;;;;5107676;28;20084;-46
2022/12/27 08:49:31;;;;;;;7.18;5.00;;;;;;;;;;5106983;27;20043;-44
2022/12/27 08:51:58;;;;;;;9.57;5.78;;;;;;;;;;5100211;28;20053;-46
2022/12/27 08:54:24;;;;;;;8.43;5.13;;;;;;;;;;5087044;28;20539;-45
2022/12/27 08:56:50;;;;;;;7.80;4.68;;;;;;;;;;5107511;28;20102;-47
2022/12/27 08:59:16;;;;;;;7.25;5.03;;;;;;;;;;5108616;28;20582;-47
2022/12/27 09:01:42;;;;;;;6.55;4.47;;;;;;;;;;5106971;28;20110;-44
2022/12/27 09:04:08;;;;;;;8.15;5.00;;;;;;;;;;5106279;28;20534;-47
2022/12/27 09:06:34;;;;;;;9.23;5.18;;;;;;;;;;5087960;28;20035;-44
2022/12/27 09:09:00;;;;;;;6.57;4.40;;;;;;;;;;5087879;28;20039;-45
2022/12/27 09:11:31;;;;;;;5.95;4.38;;;;;;;;;;5096491;28;20024;-43
2022/12/27 09:13:58;;;;;;;5.88;3.80;;;;;;;;;;5106050;27;20554;-47
2022/12/27 09:16:26;;;;;;;6.38;4.25;;;;;;;;;;5107296;28;20027;-46
2022/12/27 09:18:53;;;;;;;4.65;3.60;;;;;;;;;;5112330;28;20110;-46
2022/12/27 09:21:20;;;;;;;4.85;3.40;;;;;;;;;;5111977;28;20145;-45
2022/12/27 09:23:47;;;;;;;4.60;3.15;;;;;;;;;;5109862;28;20168;-46
2022/12/27 09:26:17;;;;;;;4.60;3.60;;;;;;;;;;5110803;28;20035;-45
2022/12/27 09:28:43;;;;;;;5.43;3.53;;;;;;;;;;5111645;27;20036;-48
2022/12/27 09:31:10;;;;;;;4.05;3.03;;;;;;;;;;5113731;27;20084;-47
2022/12/27 09:33:36;;;;;;;4.82;3.33;;;;;;;;;;5108176;28;20030;-44
2022/12/27 09:36:04;;;;;;;4.43;3.13;;;;;;;;;;5110920;28;20040;-48
2022/12/27 09:38:30;;;;;;;4.38;2.90;;;;;;;;;;5110214;28;20603;-46
2022/12/27 09:40:58;;;;;;;3.53;2.60;;;;;;;;;;5110368;28;20030;-46
2022/12/27 09:43:44;;;;;;;3.47;2.63;;;;;;;;;;5110586;28;20106;-48
2022/12/27 09:46:13;;;;;;;4.40;3.10;;;;;;;;;;5057888;28;20258;-46
2022/12/27 09:48:39;;;;;;;5.05;3.13;;;;;;;;;;5110459;28;20036;-47
2022/12/27 09:51:25;;;;;;;5.20;2.63;;;;;;;;;;5110016;28;20030;-46
2022/12/27 09:54:06;;;;;;;6.07;2.90;;;;;;;;;;5110186;28;20118;-45
2022/12/27 09:56:34;;;;;;;3.38;2.90;;;;;;;;;;5109789;28;20024;-46
2022/12/27 09:59:06;;;;;;;5.05;3.05;;;;;;;;;;5110157;28;20099;-45
2022/12/27 10:01:33;;;;;;;3.42;2.42;;;;;;;;;;5097075;28;20025;-46
2022/12/27 10:04:00;;;;;;;4.18;2.65;;;;;;;;;;5097720;28;20463;-45
2022/12/27 10:06:35;;;;;;;3.63;2.28;;;;;;;;;;5108941;28;20027;-45
2022/12/27 10:09:08;;;;;;;3.65;2.30;;;;;;;;;;5109852;28;20110;-45
2022/12/27 10:11:55;;;;;;;2.80;2.30;;;;;;;;;;5100092;28;20027;-45
2022/12/27 10:14:33;;;;;;;2.85;2.33;;;;;;;;;;5107619;28;20088;-48
2022/12/27 10:17:17;;;;;;;3.03;2.33;;;;;;;;;;5108612;28;20024;-48
2022/12/27 10:19:46;;;;;;;3.80;2.90;;;;;;;;;;5108452;28;20459;-47
2022/12/27 10:22:23;;;;;;;3.00;2.17;;;;;;;;;;5109290;28;20035;-45
2022/12/27 10:24:54;;;;;;;3.22;2.60;;;;;;;;;;5109243;28;20084;-46
2022/12/27 10:27:21;;;;;;;3.90;2.85;;;;;;;;;;5102364;28;20031;-47
2022/12/27 10:29:48;;;;;;;3.05;2.17;;;;;;;;;;5107702;28;20070;-46
2022/12/27 10:32:15;;;;;;;3.33;2.28;;;;;;;;;;5110449;28;20059;-47
2022/12/27 10:34:42;;;;;;;2.25;2.05;;;;;;;;;;5110917;28;20028;-45
2022/12/27 10:37:13;;;;;;;3.28;2.40;;;;;;;;;;5098750;28;20035;-46
2022/12/27 10:39:39;;;;;;;2.72;2.30;;;;;;;;;;5108077;28;20063;-47
2022/12/27 10:42:17;;;;;;;3.88;2.72;;;;;;;;;;5110532;28;20569;-48
2022/12/27 10:44:44;;;;;;;4.57;2.80;;;;;;;;;;5095601;27;20089;-47
2022/12/27 10:47:12;;;;;;;4.03;2.78;;;;;;;;;;5088850;28;20035;-47
2022/12/27 10:49:40;;;;;;;3.30;2.42;;;;;;;;;;5088690;28;20082;-46
2022/12/27 10:52:09;;;;;;;6.40;4.15;;;;;;;;;;5088814;28;20571;-48
2022/12/27 10:54:35;;;;;;;6.70;3.70;;;;;;;;;;5090620;28;20065;-48
2022/12/27 10:57:21;;;;;;;4.47;3.00;;;;;;;;;;5108339;28;20050;-44
2022/12/27 11:00:07;;;;;;;4.20;2.55;;;;;;;;;;5108733;28;20054;-45
2022/12/27 11:02:33;;;;;;;5.32;2.95;;;;;;;;;;5108919;28;20119;-44
2022/12/27 11:05:00;;;;;;;3.13;2.42;;;;;;;;;;5109325;28;20106;-45
2022/12/27 11:07:30;;;;;;;5.15;2.75;;;;;;;;;;5109098;28;20069;-46
2022/12/27 11:10:07;;;;;;;3.67;2.20;;;;;;;;;;5108709;28;20145;-45
2022/12/27 11:12:35;;;;;;;4.75;2.55;;;;;;;;;;5103665;28;20028;-47
2022/12/27 11:15:10;;;;;;;4.03;2.35;;;;;;;;;;5102239;28;20035;-45
2022/12/27 11:17:46;;;;;;;2.70;1.75;;;;;;;;;;5100191;28;20105;-44
2022/12/27 11:20:22;;;;;;;2.05;1.63;;;;;;;;;;5088191;28;20609;-44
2022/12/27 11:22:48;;;;;;;2.83;1.95;;;;;;;;;;5089131;28;20032;-46
2022/12/27 11:25:15;;;;;;;3.05;1.98;;;;;;;;;;5087946;28;20041;-46
2022/12/27 11:27:52;;;;;;;2.58;1.90;;;;;;;;;;5088067;28;20143;-44
2022/12/27 11:30:22;;;;;;;3.05;1.80;;;;;;;;;;5087827;28;20110;-45
2022/12/27 11:32:48;;;;;;;2.17;1.70;;;;;;;;;;5088074;28;20055;-45
2022/12/27 11:35:19;;;;;;;1.55;1.27;;;;;;;;;;5088067;28;20039;-47
2022/12/27 11:37:45;;;;;;;2.38;1.40;;;;;;;;;;5100025;28;20469;-45
2022/12/27 11:40:29;;;;;;;2.15;1.63;;;;;;;;;;5108033;28;20051;-45
2022/12/27 11:43:09;;;;;;;1.53;1.10;;;;;;;;;;5108692;28;20050;-45
2022/12/27 11:45:40;;;;;;;1.95;1.48;;;;;;;;;;5108048;28;20266;-44
2022/12/27 11:48:24;;;;;;;1.83;1.25;;;;;;;;;;5109077;28;20023;-44
2022/12/27 11:50:50;;;;;;;2.13;1.17;;;;;;;;;;5109057;28;20062;-46
2022/12/27 11:53:19;;;;;;;1.30;1.10;;;;;;;;;;5109266;28;20031;-48
2022/12/27 11:56:03;;;;;;;1.75;1.15;;;;;;;;;;5096336;28;20025;-45
2022/12/27 11:58:29;;;;;;;;;;;;;;;;;;5093051;28;20110;-44
2022/12/27 12:01:16;;;;;;;2.10;1.20;;;;;;;;;;5100156;28;19980;-45
2022/12/27 12:03:42;;;;;;;1.95;1.23;;;;;;;;;;5087177;28;20020;-45
2022/12/27 12:06:10;;;;;;;1.02;0.93;;;;;;;;;;5087415;28;20573;-45
2022/12/27 12:08:37;;;;;;;2.20;0.93;;;;;;;;;;5101511;28;20467;-46
2022/12/27 12:11:08;;;;;;;1.35;0.90;;;;;;;;;;5108818;28;20028;-44
2022/12/27 12:13:34;;;;;;;1.02;0.70;;;;;;;;;;5108698;28;20093;-44
2022/12/27 12:16:00;;;;;;;1.83;0.90;;;;;;;;;;5107076;28;20031;-45
2022/12/27 12:18:26;;;;;;;1.05;0.73;;;;;;;;;;5105340;28;20034;-44
2022/12/27 12:21:11;;;;;;;0.85;0.77;;;;;;;;;;5108630;28;20425;-45
2022/12/27 12:24:13;;;;;;;1.00;0.80;;;;;;;;;;5103662;28;20030;-45
2022/12/27 12:26:57;;;;;;;0.88;0.80;;;;;;;;;;5010825;28;20152;-46
2022/12/27 12:29:24;;;;;;;;;;;;;;;;;;5109599;27;20044;-45
2022/12/27 12:31:50;;;;;;;1.52;0.90;;;;;;;;;;5104623;28;20363;-46
2022/12/27 12:34:22;;;;;;;1.00;0.80;;;;;;;;;;5106908;28;20031;-44
2022/12/27 12:37:06;;;;;;;1.25;0.93;;;;;;;;;;5109335;28;20028;-45
2022/12/27 12:39:50;;;;;;;1.42;1.08;;;;;;;;;;5107443;28;20027;-47
2022/12/27 12:42:16;;;;;;;;;;;;;;;;;;5108170;28;20038;-45
2022/12/27 12:45:15;;;;;;;2.10;0.98;;;;;;;;;;5109384;28;19904;-45
2022/12/27 12:48:00;;;;;;;1.70;0.90;;;;;;;;;;5043261;28;20528;-45
2022/12/27 12:50:44;;;;;;;0.95;0.70;;;;;;;;;;5107691;28;20146;-44
2022/12/27 12:53:33;;;;;;;1.30;0.80;;;;;;;;;;5109072;28;20072;-47
2022/12/27 12:56:02;;;;;;;1.48;1.05;;;;;;;;;;5108918;28;20027;-48
2022/12/27 12:58:37;;;;;;;1.38;1.00;;;;;;;;;;5109319;28;20394;-44
2022/12/27 13:01:26;;;;;;;2.50;1.00;;;;;;;;;;5103794;28;20035;-47
2022/12/27 13:04:07;;;;;;;1.27;1.05;;;;;;;;;;5088409;28;20023;-44
2022/12/27 13:06:42;;;;;;;2.50;1.70;;;;;;;;;;5089161;28;20047;-44
2022/12/27 13:09:18;;;;;;;3.83;2.20;;;;;;;;;;5105348;28;20039;-45
2022/12/27 13:12:03;;;;;;;3.28;2.05;;;;;;;;;;5108638;28;20027;-44
2022/12/27 13:14:28;;;;;;;;;;;;;;;;;;5109209;28;20145;-44
2022/12/27 13:16:59;;;;;;;3.35;1.92;;;;;;;;;;5108929;28;20027;-45
2022/12/27 13:19:28;;;;;;;3.55;1.85;;;;;;;;;;5109711;28;20533;-44
2022/12/27 13:22:17;;;;;;;2.75;1.50;;;;;;;;;;5107435;28;20040;-46
2022/12/27 13:24:43;;;;;;;1.83;1.40;;;;;;;;;;5094956;28;20044;-45
2022/12/27 13:27:12;;;;;;;3.28;2.10;;;;;;;;;;5107168;28;20027;-47
2022/12/27 13:29:39;;;;;;;4.50;2.38;;;;;;;;;;5106113;28;20036;-45
2022/12/27 13:32:08;;;;;;;4.78;2.60;;;;;;;;;;5106066;28;20036;-45
2022/12/27 13:34:40;;;;;;;4.15;2.33;;;;;;;;;;5096927;28;20025;-48
2022/12/27 13:37:07;;;;;;;3.45;2.00;;;;;;;;;;5103145;28;20023;-45
2022/12/27 13:39:42;;;;;;;3.65;2.00;;;;;;;;;;5104547;28;20031;-45
2022/12/27 13:42:27;;;;;;;3.10;1.77;;;;;;;;;;5107470;28;20034;-45
2022/12/27 13:45:11;;;;;;;2.50;1.40;;;;;;;;;;5107854;28;20571;-44
2022/12/27 13:47:40;;;;;;;;;;;;;;;;;;5102209;28;20032;-46
2022/12/27 13:50:15;;;;;;;1.70;1.05;;;;;;;;;;5098561;28;19954;-45
2022/12/27 13:52:44;;;;;;;1.42;0.88;;;;;;;;;;5106178;28;20126;-44
2022/12/27 13:55:22;;;;;;;1.73;0.93;;;;;;;;;;5104409;28;20024;-44
2022/12/27 13:58:03;;;;;;;0.77;0.70;;;;;;;;;;5106937;28;20043;-44
2022/12/27 14:00:56;;;;;;;1.55;0.77;;;;;;;;;;5110929;28;20028;-45
2022/12/27 14:03:40;;;;;;;0.80;0.70;;;;;;;;;;5073957;28;20036;-46
2022/12/27 14:06:12;;;;;;;0.68;0.40;;;;;;;;;;5112701;28;20031;-47
2022/12/27 14:08:56;;;;;;;1.35;0.60;;;;;;;;;;5112278;28;20027;-44
2022/12/27 14:11:41;;;;;;;0.85;0.60;;;;;;;;;;5112033;28;20490;-46
2022/12/27 14:14:11;;;;;;;0.45;0.43;;;;;;;;;;5094797;28;20024;-44
2022/12/27 14:16:37;;;;;;;0.52;0.52;;;;;;;;;;5096079;28;20028;-48
2022/12/27 14:19:09;;;;;;;0.70;0.60;;;;;;;;;;5099034;28;20570;-45
2022/12/27 14:21:45;;;;;;;1.08;0.80;;;;;;;;;;5101570;28;20031;-45
2022/12/27 14:24:11;;;;;;;1.00;0.50;;;;;;;;;;5107347;28;20081;-47
2022/12/27 14:26:56;;;;;;;0.70;0.60;;;;;;;;;;5103026;28;20093;-44
2022/12/27 14:29:34;;;;;;;1.63;0.68;;;;;;;;;;5109559;28;20351;-45
2022/12/27 14:32:01;;;;;;;1.50;0.80;;;;;;;;;;5097287;28;20036;-47
2022/12/27 14:34:46;;;;;;;1.02;0.60;;;;;;;;;;5098107;28;20024;-46
2022/12/27 14:37:30;;;;;;;0.93;0.70;;;;;;;;;;5108110;28;20114;-49
2022/12/27 14:40:14;;;;;;;0.60;0.60;;;;;;;;;;5110097;28;20035;-47
2022/12/27 14:42:43;;;;;;;0.88;0.60;;;;;;;;;;5110786;28;20031;-45
2022/12/27 14:45:22;;;;;;;0.88;0.50;;;;;;;;;;5110730;28;20592;-45
2022/12/27 14:48:20;;;;;;;0.73;0.50;;;;;;;;;;5110702;28;20064;-45
2022/12/27 14:50:49;;;;;;;1.50;0.75;;;;;;;;;;5056008;27;20102;-47
2022/12/27 14:53:30;;;;;;;0.88;0.50;;;;;;;;;;5120487;27;20020;-46
2022/12/27 14:56:02;;;;;;;1.13;0.60;;;;;;;;;;5110494;27;20395;-46
2022/12/27 14:58:31;;;;;;;0.80;0.50;;;;;;;;;;5110175;28;20047;-45
2022/12/27 15:01:04;;;;;;;1.00;0.50;;;;;;;;;;5110027;28;20028;-45
2022/12/27 15:03:53;;;;;;;1.13;0.50;;;;;;;;;;5109416;28;20036;-45
2022/12/27 15:06:38;;;;;;;0.45;0.43;;;;;;;;;;5099363;28;20107;-47
2022/12/27 15:09:23;;;;;;;0.85;0.50;;;;;;;;;;5109274;28;20545;-48
2022/12/27 15:11:49;;;;;;;0.63;0.52;;;;;;;;;;5089922;28;20028;-47
2022/12/27 15:14:21;;;;;;;0.75;0.50;;;;;;;;;;5108240;28;20279;-48
2022/12/27 15:17:05;;;;;;;0.63;0.50;;;;;;;;;;5109839;28;20071;-46
2022/12/27 15:19:51;;;;;;;0.90;0.80;;;;;;;;;;5105434;28;20490;-45
2022/12/27 15:22:27;;;;;;;1.08;0.77;;;;;;;;;;5100527;28;20020;-44
2022/12/27 15:25:13;;;;;;;1.45;0.85;;;;;;;;;;5106596;28;20118;-45
2022/12/27 15:27:43;;;;;;;2.40;1.00;;;;;;;;;;5098513;28;20418;-46
2022/12/27 15:30:21;;;;;;;1.23;0.95;;;;;;;;;;5109619;28;20032;-48
2022/12/27 15:33:05;;;;;;;1.02;0.95;;;;;;;;;;5108709;28;20104;-48
2022/12/27 15:35:40;;;;;;;2.07;1.40;;;;;;;;;;5106642;28;20032;-47
2022/12/27 15:38:07;;;;;;;5.28;2.38;;;;;;;;;;5105687;28;20027;-46
2022/12/27 15:40:33;;;;;;;5.82;2.72;;;;;;;;;;5109218;28;20023;-46
2022/12/27 15:43:07;;;;;;;7.20;3.90;;;;;;;;;;5108090;28;20106;-45
2022/12/27 15:45:39;;;;;;;9.35;4.53;;;;;;;;;;5101335;28;20565;-48
2022/12/27 15:48:31;;;;;;;11.20;4.85;;;;;;;;;;5106328;27;20028;-47
2022/12/27 15:51:03;;;;;;;7.82;4.28;;;;;;;;;;5096826;28;20047;-45
2022/12/27 15:53:37;;;;;;;7.05;3.83;;;;;;;;;;5107197;28;20074;-45
2022/12/27 15:56:36;;;;;;;4.78;2.90;;;;;;;;;;5098922;28;20035;-48
2022/12/27 15:59:21;;;;;;;4.05;2.63;;;;;;;;;;5042991;28;20047;-45
2022/12/27 16:01:47;;;;;;;3.25;1.88;;;;;;;;;;5100615;28;20089;-47
2022/12/27 16:04:32;;;;;;;3.90;2.13;;;;;;;;;;5098598;27;20110;-48
2022/12/27 16:06:58;;;;;;;;;;;;;;;;;;5102196;28;20077;-45
2022/12/27 16:09:25;;;;;;;2.55;1.67;;;;;;;;;;5101360;28;19908;-49
2022/12/27 16:12:00;;;;;;;2.55;1.90;;;;;;;;;;5108761;28;20046;-48
2022/12/27 16:14:29;;;;;;;3.05;2.00;;;;;;;;;;5108977;28;20067;-48
2022/12/27 16:16:58;;;;;;;2.25;1.83;;;;;;;;;;5109070;28;20027;-45
2022/12/27 16:19:30;;;;;;;3.03;2.00;;;;;;;;;;5108869;28;20045;-47
2022/12/27 16:21:56;;;;;;;3.30;2.17;;;;;;;;;;5107166;28;20114;-45
2022/12/27 16:24:24;;;;;;;4.78;2.20;;;;;;;;;;5107365;28;20378;-47
2022/12/27 16:26:53;;;;;;;2.65;2.15;;;;;;;;;;5108448;28;20043;-46
2022/12/27 16:29:20;;;;;;;3.70;2.38;;;;;;;;;;5113436;27;20026;-46
2022/12/27 16:31:50;;;;;;;4.18;1.80;;;;;;;;;;5128977;27;20035;-47
2022/12/27 16:34:24;;;;;;;3.45;2.20;;;;;;;;;;5129457;27;20098;-47
2022/12/27 16:36:51;;;;;;;3.70;2.30;;;;;;;;;;5100372;27;20031;-44
2022/12/27 16:39:44;;;;;;;4.28;2.20;;;;;;;;;;5087983;28;20035;-47
2022/12/27 16:42:10;;;;;;;4.15;2.53;;;;;;;;;;5084431;28;20047;-44
2022/12/27 16:44:47;;;;;;;4.78;2.33;;;;;;;;;;5070614;28;20032;-45
2022/12/27 16:47:39;;;;;;;3.45;2.47;;;;;;;;;;5107165;28;20101;-49
2022/12/27 16:50:05;;;;;;;4.15;2.00;;;;;;;;;;5108204;28;20027;-48
2022/12/27 16:52:34;;;;;;;3.60;2.00;;;;;;;;;;5108401;28;20510;-47
2022/12/27 16:55:19;;;;;;;3.22;2.15;;;;;;;;;;5109129;28;20624;-44
2022/12/27 16:57:48;;;;;;;4.18;2.83;;;;;;;;;;5109264;28;20763;-45
2022/12/27 17:00:33;;;;;;;2.45;2.10;;;;;;;;;;5109751;27;20026;-44
2022/12/27 17:03:18;;;;;;;3.90;2.60;;;;;;;;;;5104555;27;20039;-48
2022/12/27 17:05:45;;;;;;;2.88;2.15;;;;;;;;;;5103473;28;20027;-45
2022/12/27 17:08:22;;;;;;;2.97;2.10;;;;;;;;;;5106852;28;20038;-48
2022/12/27 17:10:48;;;;;;;3.85;2.13;;;;;;;;;;5105633;28;20038;-47
2022/12/27 17:13:16;;;;;;;3.03;1.95;;;;;;;;;;5107659;28;20032;-45
2022/12/27 17:16:05;;;;;;;2.42;1.90;;;;;;;;;;5108309;28;20026;-48
2022/12/27 17:18:33;;;;;;;3.97;2.30;;;;;;;;;;5109490;28;20058;-46
2022/12/27 17:21:02;;;;;;;3.00;1.98;;;;;;;;;;5108006;28;20387;-45
2022/12/27 17:23:28;;;;;;;2.13;1.75;;;;;;;;;;5108027;28;20023;-45
2022/12/27 17:26:09;;;;;;;4.13;2.33;;;;;;;;;;5109627;28;20090;-48
2022/12/27 17:28:40;;;;;;;5.80;3.45;;;;;;;;;;5107427;28;20088;-47
2022/12/27 17:31:13;;;;;;;6.88;4.00;;;;;;;;;;5099098;28;20093;-44
2022/12/27 17:33:58;;;;;;;7.53;4.68;;;;;;;;;;5109211;28;20031;-47
2022/12/27 17:36:30;;;;;;;7.35;4.70;;;;;;;;;;5111735;28;20024;-44
2022/12/27 17:39:19;;;;;;;9.10;4.65;;;;;;;;;;5102003;28;20036;-45
2022/12/27 17:45:01;;;;;;;10.60;5.70;;;;;;;;;;5099353;28;20047;-46
2022/12/27 17:47:50;;;;;;;7.82;4.90;;;;;;;;;;5112103;28;20502;-44
2022/12/27 17:50:18;;;;;;;8.82;5.25;;;;;;;;;;5108594;28;20039;-49
2022/12/27 17:58:40;;;;;;;10.20;5.13;;;;;;;;;;5122583;27;20038;-48
2022/12/27 18:01:06;;;;;;;7.43;4.55;;;;;;;;;;5104999;28;20173;-46
2022/12/27 18:03:36;;;;;;;8.25;4.70;;;;;;;;;;5107031;28;20228;-47
2022/12/27 18:06:02;;;;;;;9.13;5.45;;;;;;;;;;5100064;28;20042;-45
2022/12/27 18:08:29;;;;;;;7.72;4.68;;;;;;;;;;5107463;28;20544;-49
2022/12/27 18:10:59;;;;;;;9.13;4.90;;;;;;;;;;5107687;28;20063;-47
2022/12/27 18:13:26;;;;;;;5.43;4.18;;;;;;;;;;5099870;28;20020;-47
2022/12/27 18:15:52;;;;;;;7.50;4.65;;;;;;;;;;5106759;28;20028;-46
2022/12/27 18:18:23;;;;;;;6.07;3.83;;;;;;;;;;5109048;28;20019;-45
2022/12/27 18:20:54;;;;;;;4.60;3.08;;;;;;;;;;5106397;28;20031;-47
2022/12/27 18:23:21;;;;;;;4.65;2.92;;;;;;;;;;5108776;28;20027;-50
2022/12/27 18:25:47;;;;;;;2.95;2.10;;;;;;;;;;5109379;28;20077;-45
2022/12/27 18:28:13;;;;;;;4.85;2.35;;;;;;;;;;5093918;28;20136;-49
2022/12/27 18:30:42;;;;;;;4.15;2.35;;;;;;;;;;5101569;28;20035;-48
2022/12/27 18:33:10;;;;;;;3.78;2.75;;;;;;;;;;5108571;28;20102;-47
2022/12/27 18:35:37;;;;;;;5.28;3.13;;;;;;;;;;5108454;28;20498;-45
2022/12/27 18:38:06;;;;;;;6.35;3.08;;;;;;;;;;5108030;28;20024;-47
2022/12/27 18:40:32;;;;;;;5.45;3.00;;;;;;;;;;5107448;28;20042;-46
2022/12/27 18:42:59;;;;;;;5.57;3.38;;;;;;;;;;5107941;28;20030;-45
2022/12/27 18:45:28;;;;;;;5.63;3.50;;;;;;;;;;5108646;28;20177;-46
2022/12/27 18:47:56;;;;;;;6.63;3.92;;;;;;;;;;5108466;28;20031;-49
2022/12/27 18:50:23;;;;;;;7.57;4.40;;;;;;;;;;5108518;28;20429;-46
2022/12/27 18:52:59;;;;;;;10.48;4.90;;;;;;;;;;5107616;28;20406;-45
2022/12/27 18:55:26;;;;;;;6.38;3.47;;;;;;;;;;5108752;28;20023;-47
2022/12/27 18:58:01;;;;;;;7.18;3.97;;;;;;;;;;5108579;28;20386;-46
2022/12/27 19:00:28;;;;;;;5.50;3.63;;;;;;;;;;5107966;28;20035;-45
2022/12/27 19:03:11;;;;;;;6.53;4.15;;;;;;;;;;5107573;28;20028;-49
2022/12/27 19:05:37;;;;;;;8.23;4.97;;;;;;;;;;5104873;28;20027;-47
2022/12/27 19:08:10;;;;;;;10.88;5.70;;;;;;;;;;5107072;28;20038;-45
2022/12/27 19:10:37;;;;;;;9.07;5.57;;;;;;;;;;5088563;28;20380;-50
2022/12/27 19:13:03;;;;;;;9.27;5.68;;;;;;;;;;5093801;28;20031;-50
2022/12/27 19:15:39;;;;;;;9.38;5.20;;;;;;;;;;5101964;28;20123;-46
2022/12/27 19:18:06;;;;;;;8.43;5.43;;;;;;;;;;5107173;28;20030;-46
2022/12/27 19:20:34;;;;;;;8.77;4.88;;;;;;;;;;5106002;28;20423;-46
2022/12/27 19:23:05;;;;;;;8.07;4.55;;;;;;;;;;5096143;28;20032;-46
2022/12/27 19:25:35;;;;;;;7.53;4.10;;;;;;;;;;5092069;28;20028;-47
2022/12/27 19:28:02;;;;;;;6.97;4.40;;;;;;;;;;5103399;28;20565;-45
2022/12/27 19:30:37;;;;;;;6.88;4.57;;;;;;;;;;5106286;28;20118;-45
2022/12/27 19:33:06;;;;;;;6.47;3.85;;;;;;;;;;5097430;28;20032;-48
2022/12/27 19:35:33;;;;;;;6.78;3.97;;;;;;;;;;5089040;28;20031;-45
2022/12/27 19:38:00;;;;;;;8.35;5.10;;;;;;;;;;5100921;28;20541;-48
2022/12/27 19:40:26;;;;;;;8.45;5.40;;;;;;;;;;5084941;28;20047;-45
2022/12/27 19:42:52;;;;;;;7.50;4.85;;;;;;;;;;5107201;28;20031;-48
2022/12/27 19:45:19;;;;;;;7.60;4.82;;;;;;;;;;5101876;28;20036;-49
2022/12/27 19:47:48;;;;;;;7.15;4.43;;;;;;;;;;5108879;28;20451;-45
2022/12/27 19:50:14;;;;;;;9.32;5.10;;;;;;;;;;5108030;28;20088;-47
2022/12/27 19:52:40;;;;;;;11.15;6.05;;;;;;;;;;5086569;28;20027;-48
2022/12/27 19:55:09;;;;;;;10.90;6.18;;;;;;;;;;5105374;28;20051;-46
2022/12/27 19:57:35;;;;;;;10.73;5.57;;;;;;;;;;5098785;28;20547;-49
2022/12/27 20:00:03;;;;;;;11.13;5.95;;;;;;;;;;5106480;28;20031;-48
2022/12/27 20:02:29;;;;;;;10.00;5.07;;;;;;;;;;5106171;28;20034;-46
2022/12/27 20:04:55;;;;;;;9.77;5.47;;;;;;;;;;5105135;28;20028;-49
2022/12/27 20:07:23;;;;;;;11.05;5.43;;;;;;;;;;5106006;28;20027;-47
2022/12/27 20:09:49;;;;;;;8.77;4.63;;;;;;;;;;5095257;27;20073;-45
2022/12/27 20:12:15;;;;;;;8.50;4.78;;;;;;;;;;5105293;28;20020;-45
2022/12/27 20:14:41;;;;;;;11.02;5.40;;;;;;;;;;5106552;28;20031;-46
2022/12/27 20:17:07;;;;;;;10.63;5.10;;;;;;;;;;5106588;28;20031;-45
2022/12/27 20:19:34;;;;;;;10.45;5.70;;;;;;;;;;5087868;28;20051;-45